createdAt,value
2018-01-26T00:00:03.672Z,7.92
2018-01-26T00:00:07.463Z,7.94
2018-01-26T00:00:11.254Z,7.92
2018-01-26T00:00:14.937Z,7.85
2018-01-26T00:00:19.038Z,7.92
2018-01-26T00:00:23.041Z,7.91
2018-01-26T00:00:26.938Z,7.89
2018-01-26T00:00:30.940Z,7.89
2018-01-26T00:00:34.732Z,7.92
2018-01-26T00:00:38.730Z,7.86
2018-01-26T00:00:42.736Z,7.89
2018-01-26T00:00:46.737Z,7.96
2018-01-26T00:00:51.052Z,7.86
2018-01-26T00:00:54.944Z,7.88
2018-01-26T00:00:58.840Z,7.92
2018-01-26T00:01:02.752Z,7.92
2018-01-26T00:01:06.647Z,7.92
2018-01-26T00:01:10.541Z,7.88
2018-01-26T00:01:14.645Z,7.91
2018-01-26T00:01:18.751Z,7.89
2018-01-26T00:01:22.539Z,7.92
2018-01-26T00:01:26.535Z,7.88
2018-01-26T00:01:30.526Z,7.91
2018-01-26T00:01:34.319Z,7.88
2018-01-26T00:01:38.110Z,7.89
2018-01-26T00:01:42.214Z,7.89
2018-01-26T00:01:46.334Z,7.94
2018-01-26T00:01:50.438Z,7.86
2018-01-26T00:01:54.226Z,7.84
2018-01-26T00:01:58.335Z,7.88
2018-01-26T00:02:02.277Z,7.89
2018-01-26T00:02:06.174Z,7.95
2018-01-26T00:02:10.280Z,7.91
2018-01-26T00:02:14.172Z,7.86
2018-01-26T00:02:18.381Z,7.88
2018-01-26T00:02:22.173Z,7.89
2018-01-26T00:02:26.070Z,7.92
2018-01-26T00:02:30.065Z,7.89
2018-01-26T00:02:33.962Z,7.89
2018-01-26T00:02:37.756Z,7.89
2018-01-26T00:02:41.442Z,7.91
2018-01-26T00:02:45.751Z,7.91
2018-01-26T00:02:49.860Z,7.95
2018-01-26T00:02:53.751Z,7.84
2018-01-26T00:02:57.758Z,7.88
2018-01-26T00:03:01.549Z,7.91
2018-01-26T00:03:05.950Z,7.92
2018-01-26T00:03:09.846Z,7.88
2018-01-26T00:03:13.633Z,7.92
2018-01-26T00:03:17.530Z,7.89
2018-01-26T00:03:21.450Z,7.91
2018-01-26T00:03:25.448Z,7.88
2018-01-26T00:03:29.765Z,7.82
2018-01-26T00:03:33.549Z,7.86
2018-01-26T00:03:37.342Z,7.96
2018-01-26T00:03:41.576Z,7.85
2018-01-26T00:03:45.882Z,7.92
2018-01-26T00:03:49.878Z,7.89
2018-01-26T00:03:53.876Z,7.91
2018-01-26T00:03:57.560Z,7.85
2018-01-26T00:04:01.556Z,7.91
2018-01-26T00:04:05.442Z,7.86
2018-01-26T00:04:09.232Z,7.96
2018-01-26T00:04:13.127Z,7.81
2018-01-26T00:04:17.029Z,7.94
2018-01-26T00:04:21.029Z,7.95
2018-01-26T00:04:25.132Z,7.79
2018-01-26T00:04:28.922Z,7.81
2018-01-26T00:04:32.822Z,7.79
2018-01-26T00:05:08.965Z,7.84
2018-01-26T00:05:12.870Z,7.81
2018-01-26T00:05:16.760Z,7.79
2018-01-26T00:05:20.757Z,7.79
2018-01-26T00:05:24.550Z,7.79
2018-01-26T00:05:28.550Z,7.81
2018-01-26T00:05:32.453Z,7.77
2018-01-26T00:05:36.347Z,7.82
2018-01-26T00:05:40.351Z,7.81
2018-01-26T00:05:44.344Z,7.81
2018-01-26T00:05:48.241Z,7.79
2018-01-26T00:05:52.034Z,7.79
2018-01-26T00:05:55.825Z,7.82
2018-01-26T00:05:59.716Z,7.81
2018-01-26T00:06:03.756Z,7.85
2018-01-26T00:06:07.436Z,7.85
2018-01-26T00:06:11.127Z,7.79
2018-01-26T00:06:14.915Z,7.82
2018-01-26T00:06:18.813Z,7.82
2018-01-26T00:06:22.708Z,7.79
2018-01-26T00:06:26.819Z,7.77
2018-01-26T00:06:31.025Z,7.82
2018-01-26T00:06:34.926Z,7.81
2018-01-26T00:06:39.026Z,7.85
2018-01-26T00:06:42.819Z,7.84
2018-01-26T00:06:46.815Z,7.79
2018-01-26T00:06:50.814Z,7.82
2018-01-26T00:06:54.819Z,7.82
2018-01-26T00:06:58.934Z,7.79
2018-01-26T00:07:03.034Z,7.77
2018-01-26T00:07:07.033Z,7.88
2018-01-26T00:07:10.826Z,7.82
2018-01-26T00:07:14.930Z,7.86
2018-01-26T00:07:18.829Z,7.71
2018-01-26T00:07:22.615Z,7.77
2018-01-26T00:07:26.403Z,7.79
2018-01-26T00:07:30.296Z,7.86
2018-01-26T00:07:33.978Z,7.88
2018-01-26T00:07:37.882Z,7.76
2018-01-26T00:07:41.782Z,7.79
2018-01-26T00:07:45.573Z,7.86
2018-01-26T00:07:49.679Z,7.71
2018-01-26T00:07:53.581Z,7.76
2018-01-26T00:07:57.587Z,7.85
2018-01-26T00:08:01.488Z,7.79
2018-01-26T00:08:05.375Z,7.88
2018-01-26T00:08:09.268Z,7.81
2018-01-26T00:08:13.484Z,7.84
2018-01-26T00:08:17.490Z,7.81
2018-01-26T00:08:21.488Z,7.82
2018-01-26T00:08:25.491Z,7.76
2018-01-26T00:08:29.601Z,7.76
2018-01-26T00:08:33.705Z,7.79
2018-01-26T00:08:37.709Z,7.79
2018-01-26T00:08:41.812Z,7.79
2018-01-26T00:08:45.808Z,7.76
2018-01-26T00:08:49.598Z,7.74
2018-01-26T00:08:53.491Z,7.76
2018-01-26T00:08:57.385Z,7.71
2018-01-26T00:09:01.382Z,7.74
2018-01-26T00:09:05.073Z,7.81
2018-01-26T00:09:09.176Z,7.73
2018-01-26T00:09:13.170Z,7.74
2018-01-26T00:09:17.065Z,7.71
2018-01-26T00:09:20.955Z,7.76
2018-01-26T00:09:25.061Z,7.81
2018-01-26T00:09:29.104Z,7.82
2018-01-26T00:09:33.004Z,7.77
2018-01-26T00:09:37.107Z,7.79
2018-01-26T00:09:41.106Z,7.7
2018-01-26T00:09:45.106Z,7.77
2018-01-26T00:09:49.216Z,7.69
2018-01-26T00:09:53.113Z,7.82
2018-01-26T00:09:57.007Z,7.74
2018-01-26T00:10:00.913Z,7.82
2018-01-26T00:10:04.809Z,7.73
2018-01-26T00:10:08.596Z,7.85
2018-01-26T00:10:12.286Z,7.73
2018-01-26T00:10:16.289Z,7.76
2018-01-26T00:10:20.394Z,7.74
2018-01-26T00:10:24.290Z,7.73
2018-01-26T00:10:28.499Z,7.73
2018-01-26T00:10:32.393Z,7.77
2018-01-26T00:10:36.284Z,7.76
2018-01-26T00:10:40.404Z,7.81
2018-01-26T00:10:44.399Z,7.73
2018-01-26T00:10:48.080Z,7.74
2018-01-26T00:10:51.762Z,7.74
2018-01-26T00:10:55.872Z,7.73
2018-01-26T00:10:59.667Z,7.74
2018-01-26T00:11:03.866Z,7.77
2018-01-26T00:11:07.703Z,7.73
2018-01-26T00:11:11.609Z,7.76
2018-01-26T00:11:15.393Z,7.77
2018-01-26T00:11:19.178Z,7.74
2018-01-26T00:11:22.963Z,7.66
2018-01-26T00:11:26.853Z,7.7
2018-01-26T00:11:30.955Z,7.71
2018-01-26T00:11:34.954Z,7.74
2018-01-26T00:11:38.744Z,7.7
2018-01-26T00:11:42.528Z,7.69
2018-01-26T00:11:46.624Z,7.67
2018-01-26T00:11:50.723Z,7.6
2018-01-26T00:11:54.611Z,7.62
2018-01-26T00:11:58.748Z,7.62
2018-01-26T00:12:02.542Z,7.62
2018-01-26T00:12:06.328Z,7.63
2018-01-26T00:12:10.119Z,7.58
2018-01-26T00:12:13.802Z,7.67
2018-01-26T00:12:17.689Z,7.62
2018-01-26T00:12:21.795Z,7.66
2018-01-26T00:12:25.798Z,7.6
2018-01-26T00:12:29.693Z,7.6
2018-01-26T00:12:33.694Z,7.62
2018-01-26T00:12:37.485Z,7.58
2018-01-26T00:12:41.372Z,7.63
2018-01-26T00:12:45.265Z,7.63
2018-01-26T00:12:49.162Z,7.63
2018-01-26T00:12:53.265Z,7.52
2018-01-26T00:12:57.054Z,7.67
2018-01-26T00:13:01.056Z,7.58
2018-01-26T00:13:05.252Z,7.52
2018-01-26T00:13:09.262Z,7.5
2018-01-26T00:13:13.154Z,7.66
2018-01-26T00:13:16.944Z,7.52
2018-01-26T00:13:20.942Z,7.55
2018-01-26T00:13:24.947Z,7.54
2018-01-26T00:13:28.943Z,7.48
2018-01-26T00:13:32.632Z,7.54
2018-01-26T00:13:36.420Z,7.55
2018-01-26T00:13:40.321Z,7.51
2018-01-26T00:13:44.102Z,7.55
2018-01-26T00:13:47.792Z,7.47
2018-01-26T00:13:52.004Z,7.54
2018-01-26T00:13:56.003Z,7.52
2018-01-26T00:13:59.899Z,7.45
2018-01-26T00:14:03.999Z,7.54
2018-01-26T00:14:08.001Z,7.5
2018-01-26T00:14:11.789Z,7.48
2018-01-26T00:14:15.789Z,7.47
2018-01-26T00:14:19.787Z,7.39
2018-01-26T00:14:23.792Z,7.48
2018-01-26T00:14:27.579Z,7.42
2018-01-26T00:14:31.574Z,7.5
2018-01-26T00:14:35.463Z,7.48
2018-01-26T00:14:39.583Z,7.45
2018-01-26T00:14:43.578Z,7.37
2018-01-26T00:14:47.796Z,7.42
2018-01-26T00:14:51.677Z,7.5
2018-01-26T00:14:55.567Z,7.41
2018-01-26T00:14:59.567Z,7.42
2018-01-26T00:15:03.873Z,7.39
2018-01-26T00:15:07.667Z,7.39
2018-01-26T00:15:11.777Z,7.33
2018-01-26T00:15:15.881Z,7.37
2018-01-26T00:15:19.986Z,7.37
2018-01-26T00:15:23.881Z,7.42
2018-01-26T00:15:27.670Z,7.39
2018-01-26T00:15:31.454Z,7.42
2018-01-26T00:15:35.455Z,7.41
2018-01-26T00:15:39.347Z,7.44
2018-01-26T00:15:43.356Z,7.39
2018-01-26T00:15:47.360Z,7.44
2018-01-26T00:15:51.251Z,7.44
2018-01-26T00:15:55.147Z,7.42
2018-01-26T00:15:59.143Z,7.42
2018-01-26T00:16:03.031Z,7.39
2018-01-26T00:16:07.035Z,7.34
2018-01-26T00:16:10.723Z,7.36
2018-01-26T00:16:14.824Z,7.34
2018-01-26T00:16:19.060Z,7.3
2018-01-26T00:16:23.157Z,7.29
2018-01-26T00:16:27.264Z,7.32
2018-01-26T00:16:31.258Z,7.37
2018-01-26T00:16:35.358Z,7.32
2018-01-26T00:16:39.460Z,7.33
2018-01-26T00:16:43.360Z,7.33
2018-01-26T00:16:47.043Z,7.32
2018-01-26T00:16:51.033Z,7.32
2018-01-26T00:16:55.037Z,7.34
2018-01-26T00:16:58.931Z,7.33
2018-01-26T00:17:03.083Z,7.32
2018-01-26T00:17:06.980Z,7.33
2018-01-26T00:17:10.776Z,7.3
2018-01-26T00:17:14.781Z,7.3
2018-01-26T00:17:18.885Z,7.26
2018-01-26T00:17:22.892Z,7.18
2018-01-26T00:17:26.783Z,7.34
2018-01-26T00:17:30.678Z,7.24
2018-01-26T00:17:34.471Z,7.34
2018-01-26T00:17:38.259Z,7.32
2018-01-26T00:17:42.150Z,7.24
2018-01-26T00:17:46.045Z,7.26
2018-01-26T00:17:50.041Z,7.19
2018-01-26T00:17:53.821Z,7.34
2018-01-26T00:17:57.714Z,7.24
2018-01-26T00:18:01.852Z,7.3
2018-01-26T00:18:05.854Z,7.29
2018-01-26T00:18:09.538Z,7.3
2018-01-26T00:18:13.637Z,7.3
2018-01-26T00:18:17.537Z,7.29
2018-01-26T00:18:21.635Z,7.29
2018-01-26T00:18:25.633Z,7.24
2018-01-26T00:18:29.631Z,7.29
2018-01-26T00:18:33.528Z,7.27
2018-01-26T00:18:37.216Z,7.24
2018-01-26T00:18:41.115Z,7.26
2018-01-26T00:18:45.139Z,7.18
2018-01-26T00:18:49.246Z,7.18
2018-01-26T00:18:53.133Z,7.24
2018-01-26T00:18:57.026Z,7.26
2018-01-26T00:19:01.027Z,7.26
2018-01-26T00:19:05.015Z,7.21
2018-01-26T00:19:09.011Z,7.24
2018-01-26T00:19:12.797Z,7.24
2018-01-26T00:19:16.895Z,7.23
2018-01-26T00:19:20.895Z,7.24
2018-01-26T00:19:25.006Z,7.19
2018-01-26T00:19:28.894Z,7.19
2018-01-26T00:19:32.786Z,7.26
2018-01-26T00:19:36.783Z,7.12
2018-01-26T00:19:40.577Z,7.21
2018-01-26T00:19:44.262Z,7.23
2018-01-26T00:19:48.155Z,7.05
2018-01-26T00:19:51.940Z,7.21
2018-01-26T00:19:55.942Z,7.09
2018-01-26T00:19:59.945Z,7.05
2018-01-26T00:20:04.047Z,7.16
2018-01-26T00:20:07.945Z,7.05
2018-01-26T00:20:11.732Z,7.08
2018-01-26T00:20:15.730Z,7.07
2018-01-26T00:20:19.626Z,7.09
2018-01-26T00:20:23.734Z,7.07
2018-01-26T00:20:27.742Z,7.14
2018-01-26T00:20:31.428Z,7.04
2018-01-26T00:20:35.326Z,7.12
2018-01-26T00:20:39.120Z,7.08
2018-01-26T00:20:42.909Z,7.07
2018-01-26T00:20:46.904Z,7.09
2018-01-26T00:20:50.696Z,7.12
2018-01-26T00:20:54.487Z,7.14
2018-01-26T00:20:58.388Z,7.14
2018-01-26T00:21:02.324Z,7.15
2018-01-26T00:21:06.109Z,7.09
2018-01-26T00:21:09.792Z,7.12
2018-01-26T00:21:13.688Z,7.11
2018-01-26T00:21:17.484Z,7.05
2018-01-26T00:21:21.486Z,7.08
2018-01-26T00:21:25.592Z,7.14
2018-01-26T00:21:29.589Z,7.04
2018-01-26T00:21:33.486Z,7
2018-01-26T00:21:37.279Z,7.09
2018-01-26T00:21:41.277Z,7.05
2018-01-26T00:21:45.172Z,7.09
2018-01-26T00:21:49.169Z,7.04
2018-01-26T00:21:52.962Z,7.09
2018-01-26T00:21:56.853Z,7.07
2018-01-26T00:22:00.746Z,7
2018-01-26T00:22:04.641Z,7.08
2018-01-26T00:22:08.528Z,7.04
2018-01-26T00:22:12.426Z,7.01
2018-01-26T00:22:16.428Z,7.01
2018-01-26T00:22:20.640Z,7.05
2018-01-26T00:22:24.649Z,7.09
2018-01-26T00:22:28.446Z,7.05
2018-01-26T00:22:32.340Z,7.09
2018-01-26T00:22:36.234Z,7.05
2018-01-26T00:22:39.911Z,7.07
2018-01-26T00:22:43.805Z,6.99
2018-01-26T00:22:47.703Z,6.97
2018-01-26T00:22:51.389Z,6.96
2018-01-26T00:22:55.179Z,6.97
2018-01-26T00:22:58.972Z,6.97
2018-01-26T00:23:02.765Z,7.01
2018-01-26T00:23:06.664Z,6.97
2018-01-26T00:23:10.558Z,6.97
2018-01-26T00:23:14.557Z,7.01
2018-01-26T00:23:18.553Z,6.93
2018-01-26T00:23:22.758Z,6.99
2018-01-26T00:23:26.653Z,6.94
2018-01-26T00:23:30.756Z,6.97
2018-01-26T00:23:34.654Z,6.96
2018-01-26T00:23:38.857Z,7.01
2018-01-26T00:23:42.968Z,6.94
2018-01-26T00:23:46.863Z,7.01
2018-01-26T00:23:50.860Z,6.94
2018-01-26T00:23:54.749Z,6.99
2018-01-26T00:23:58.744Z,6.93
2018-01-26T00:24:02.537Z,6.9
2018-01-26T00:24:06.538Z,6.94
2018-01-26T00:24:10.219Z,7
2018-01-26T00:24:14.122Z,6.93
2018-01-26T00:24:17.910Z,6.94
2018-01-26T00:24:22.014Z,6.94
2018-01-26T00:24:25.908Z,6.96
2018-01-26T00:24:30.011Z,6.96
2018-01-26T00:24:34.117Z,6.91
2018-01-26T00:24:37.910Z,6.9
2018-01-26T00:24:41.909Z,6.9
2018-01-26T00:24:45.700Z,6.9
2018-01-26T00:24:49.386Z,6.9
2018-01-26T00:24:53.388Z,6.91
2018-01-26T00:24:57.537Z,6.9
2018-01-26T00:25:01.437Z,6.83
2018-01-26T00:25:05.441Z,6.83
2018-01-26T00:25:09.125Z,7
2018-01-26T00:25:13.022Z,6.87
2018-01-26T00:25:16.916Z,6.99
2018-01-26T00:25:20.919Z,6.86
2018-01-26T00:25:24.918Z,6.87
2018-01-26T00:25:28.944Z,6.9
2018-01-26T00:25:32.842Z,6.93
2018-01-26T00:25:36.732Z,6.93
2018-01-26T00:25:40.734Z,6.9
2018-01-26T00:25:44.728Z,6.87
2018-01-26T00:25:48.719Z,6.82
2018-01-26T00:25:52.508Z,6.89
2018-01-26T00:25:56.302Z,6.89
2018-01-26T00:26:00.194Z,6.76
2018-01-26T00:26:04.081Z,6.83
2018-01-26T00:26:07.874Z,6.83
2018-01-26T00:26:11.769Z,6.86
2018-01-26T00:26:15.662Z,6.78
2018-01-26T00:26:19.348Z,6.76
2018-01-26T00:26:23.030Z,6.78
2018-01-26T00:26:26.918Z,6.86
2018-01-26T00:26:30.811Z,6.78
2018-01-26T00:26:34.707Z,6.83
2018-01-26T00:26:38.704Z,6.79
2018-01-26T00:26:42.496Z,6.82
2018-01-26T00:26:46.291Z,6.75
2018-01-26T00:26:50.182Z,6.73
2018-01-26T00:26:53.869Z,6.73
2018-01-26T00:26:57.662Z,6.73
2018-01-26T00:27:01.770Z,6.9
2018-01-26T00:27:05.781Z,6.72
2018-01-26T00:27:09.695Z,6.73
2018-01-26T00:27:13.591Z,6.76
2018-01-26T00:27:17.382Z,6.79
2018-01-26T00:27:21.483Z,6.73
2018-01-26T00:27:25.482Z,6.76
2018-01-26T00:27:29.376Z,6.75
2018-01-26T00:27:33.171Z,6.79
2018-01-26T00:27:36.961Z,6.82
2018-01-26T00:27:40.855Z,6.79
2018-01-26T00:27:44.749Z,6.79
2018-01-26T00:27:48.548Z,6.82
2018-01-26T00:27:52.338Z,6.79
2018-01-26T00:27:56.228Z,6.75
2018-01-26T00:28:00.233Z,6.83
2018-01-26T00:28:04.486Z,6.79
2018-01-26T00:28:08.384Z,6.76
2018-01-26T00:28:12.280Z,6.73
2018-01-26T00:28:16.223Z,6.78
2018-01-26T00:28:20.020Z,6.78
2018-01-26T00:28:24.124Z,6.73
2018-01-26T00:28:28.171Z,6.81
2018-01-26T00:28:31.959Z,6.78
2018-01-26T00:28:35.750Z,6.79
2018-01-26T00:28:39.741Z,6.76
2018-01-26T00:28:43.635Z,6.69
2018-01-26T00:28:47.635Z,6.79
2018-01-26T00:28:51.422Z,6.72
2018-01-26T00:28:55.420Z,6.69
2018-01-26T00:28:59.522Z,6.75
2018-01-26T00:29:03.634Z,6.69
2018-01-26T00:29:07.426Z,6.71
2018-01-26T00:29:11.214Z,6.68
2018-01-26T00:29:15.108Z,6.73
2018-01-26T00:29:18.899Z,6.68
2018-01-26T00:29:23.050Z,6.68
2018-01-26T00:29:26.837Z,6.75
2018-01-26T00:29:30.727Z,6.68
2018-01-26T00:29:34.724Z,6.72
2018-01-26T00:29:38.613Z,6.65
2018-01-26T00:29:42.503Z,6.64
2018-01-26T00:29:46.186Z,6.64
2018-01-26T00:29:50.181Z,6.65
2018-01-26T00:29:54.085Z,6.69
2018-01-26T00:29:57.981Z,6.71
2018-01-26T00:30:01.880Z,6.68
2018-01-26T00:30:05.666Z,6.71
2018-01-26T00:30:09.773Z,6.65
2018-01-26T00:30:13.772Z,6.65
2018-01-26T00:30:17.561Z,6.71
2018-01-26T00:30:21.573Z,6.71
2018-01-26T00:30:25.462Z,6.71
2018-01-26T00:30:29.148Z,6.69
2018-01-26T00:30:33.146Z,6.65
2018-01-26T00:30:37.045Z,6.75
2018-01-26T00:30:41.252Z,6.6
2018-01-26T00:30:45.254Z,6.71
2018-01-26T00:30:49.148Z,6.65
2018-01-26T00:30:53.048Z,6.75
2018-01-26T00:30:57.155Z,6.68
2018-01-26T00:31:01.295Z,6.69
2018-01-26T00:31:05.398Z,6.69
2018-01-26T00:31:09.076Z,6.65
2018-01-26T00:31:12.982Z,6.68
2018-01-26T00:31:16.766Z,6.68
2018-01-26T00:31:20.565Z,6.69
2018-01-26T00:31:24.557Z,6.68
2018-01-26T00:31:28.555Z,6.75
2018-01-26T00:31:32.762Z,6.64
2018-01-26T00:31:36.554Z,6.65
2018-01-26T00:31:40.555Z,6.69
2018-01-26T00:31:44.560Z,6.71
2018-01-26T00:31:48.762Z,6.72
2018-01-26T00:31:52.666Z,6.65
2018-01-26T00:31:56.666Z,6.65
2018-01-26T00:32:00.352Z,6.69
2018-01-26T00:32:04.463Z,6.65
2018-01-26T00:32:08.589Z,6.68
2018-01-26T00:32:12.697Z,6.63
2018-01-26T00:32:16.531Z,6.55
2018-01-26T00:32:20.218Z,6.71
2018-01-26T00:32:24.111Z,6.65
2018-01-26T00:32:27.900Z,6.54
2018-01-26T00:32:31.795Z,6.65
2018-01-26T00:32:35.476Z,6.71
2018-01-26T00:32:39.373Z,6.54
2018-01-26T00:32:43.216Z,6.65
2018-01-26T00:32:47.210Z,6.58
2018-01-26T00:32:51.001Z,6.72
2018-01-26T00:32:54.787Z,6.64
2018-01-26T00:32:58.898Z,6.64
2018-01-26T00:33:02.789Z,6.69
2018-01-26T00:33:06.579Z,6.64
2018-01-26T00:33:10.576Z,6.63
2018-01-26T00:33:14.570Z,6.69
2018-01-26T00:33:18.679Z,6.58
2018-01-26T00:33:22.786Z,6.65
2018-01-26T00:33:26.789Z,6.69
2018-01-26T00:33:30.574Z,6.57
2018-01-26T00:33:34.680Z,6.58
2018-01-26T00:33:38.573Z,6.68
2018-01-26T00:33:42.576Z,6.64
2018-01-26T00:33:46.368Z,6.68
2018-01-26T00:33:50.260Z,6.65
2018-01-26T00:33:54.155Z,6.68
2018-01-26T00:33:57.839Z,6.64
2018-01-26T00:34:01.837Z,6.58
2018-01-26T00:34:05.731Z,6.63
2018-01-26T00:34:09.641Z,6.64
2018-01-26T00:34:13.644Z,6.65
2018-01-26T00:34:17.535Z,6.68
2018-01-26T00:34:21.533Z,6.69
2018-01-26T00:34:25.327Z,6.55
2018-01-26T00:34:29.441Z,6.63
2018-01-26T00:34:33.440Z,6.64
2018-01-26T00:34:37.472Z,6.6
2018-01-26T00:34:41.520Z,6.55
2018-01-26T00:34:45.417Z,6.6
2018-01-26T00:34:49.425Z,6.65
2018-01-26T00:34:53.416Z,6.63
2018-01-26T00:34:57.535Z,6.57
2018-01-26T00:35:01.734Z,6.53
2018-01-26T00:35:05.529Z,6.64
2018-01-26T00:35:09.435Z,6.61
2018-01-26T00:35:13.539Z,6.57
2018-01-26T00:35:17.432Z,6.6
2018-01-26T00:35:21.438Z,6.61
2018-01-26T00:35:25.438Z,6.64
2018-01-26T00:35:29.332Z,6.55
2018-01-26T00:35:33.224Z,6.63
2018-01-26T00:35:37.221Z,6.65
2018-01-26T00:35:41.125Z,6.57
2018-01-26T00:35:44.907Z,6.61
2018-01-26T00:35:48.801Z,6.61
2018-01-26T00:35:52.802Z,6.57
2018-01-26T00:35:56.702Z,6.58
2018-01-26T00:36:00.596Z,6.61
2018-01-26T00:36:04.594Z,6.65
2018-01-26T00:36:08.379Z,6.54
2018-01-26T00:36:12.275Z,6.6
2018-01-26T00:36:16.166Z,6.58
2018-01-26T00:36:20.059Z,6.61
2018-01-26T00:36:24.051Z,6.55
2018-01-26T00:36:28.154Z,6.57
2018-01-26T00:36:31.944Z,6.6
2018-01-26T00:36:35.732Z,6.54
2018-01-26T00:36:39.732Z,6.57
2018-01-26T00:36:43.627Z,6.51
2018-01-26T00:36:47.309Z,6.54
2018-01-26T00:36:51.097Z,6.57
2018-01-26T00:36:55.208Z,6.55
2018-01-26T00:36:59.003Z,6.57
2018-01-26T00:37:03.049Z,6.53
2018-01-26T00:37:07.046Z,6.55
2018-01-26T00:37:11.150Z,6.54
2018-01-26T00:37:15.048Z,6.53
2018-01-26T00:37:19.060Z,6.53
2018-01-26T00:37:23.177Z,6.53
2018-01-26T00:37:27.281Z,6.53
2018-01-26T00:37:31.282Z,6.58
2018-01-26T00:37:35.277Z,6.48
2018-01-26T00:37:39.173Z,6.51
2018-01-26T00:37:43.276Z,6.54
2018-01-26T00:37:47.065Z,6.55
2018-01-26T00:37:50.749Z,6.53
2018-01-26T00:37:54.432Z,6.53
2018-01-26T00:37:58.325Z,6.46
2018-01-26T00:38:02.371Z,6.51
2018-01-26T00:38:06.485Z,6.51
2018-01-26T00:38:10.600Z,6.51
2018-01-26T00:38:14.292Z,6.54
2018-01-26T00:38:18.081Z,6.53
2018-01-26T00:38:21.867Z,6.53
2018-01-26T00:38:25.764Z,6.48
2018-01-26T00:38:29.763Z,6.55
2018-01-26T00:38:33.967Z,6.51
2018-01-26T00:38:37.863Z,6.53
2018-01-26T00:38:41.868Z,6.54
2018-01-26T00:38:45.769Z,6.54
2018-01-26T00:38:49.768Z,6.51
2018-01-26T00:38:53.657Z,6.53
2018-01-26T00:38:57.660Z,6.51
2018-01-26T00:39:01.452Z,6.51
2018-01-26T00:39:05.905Z,6.45
2018-01-26T00:39:09.803Z,6.51
2018-01-26T00:39:13.707Z,6.54
2018-01-26T00:39:17.709Z,6.5
2018-01-26T00:39:21.613Z,6.54
2018-01-26T00:39:25.511Z,6.42
2018-01-26T00:39:29.510Z,6.4
2018-01-26T00:39:33.307Z,6.54
2018-01-26T00:39:37.301Z,6.38
2018-01-26T00:39:41.086Z,6.48
2018-01-26T00:39:45.087Z,6.46
2018-01-26T00:39:49.188Z,6.43
2018-01-26T00:39:53.087Z,6.45
2018-01-26T00:39:56.984Z,6.46
2018-01-26T00:40:00.987Z,6.36
2018-01-26T00:40:04.912Z,6.42
2018-01-26T00:40:08.851Z,6.5
2018-01-26T00:40:12.739Z,6.5
2018-01-26T00:40:16.738Z,6.43
2018-01-26T00:40:20.734Z,6.38
2018-01-26T00:40:24.628Z,6.4
2018-01-26T00:40:28.736Z,6.35
2018-01-26T00:40:32.417Z,6.45
2018-01-26T00:40:36.207Z,6.45
2018-01-26T00:40:39.998Z,6.42
2018-01-26T00:40:43.893Z,6.43
2018-01-26T00:40:47.894Z,6.45
2018-01-26T00:40:51.896Z,6.46
2018-01-26T00:40:55.788Z,6.55
2018-01-26T00:40:59.679Z,6.5
2018-01-26T00:41:03.698Z,6.43
2018-01-26T00:41:07.700Z,6.4
2018-01-26T00:41:11.596Z,6.4
2018-01-26T00:41:15.593Z,6.43
2018-01-26T00:41:19.280Z,6.38
2018-01-26T00:41:23.281Z,6.51
2018-01-26T00:41:27.388Z,6.43
2018-01-26T00:41:31.392Z,6.48
2018-01-26T00:41:35.289Z,6.55
2018-01-26T00:41:39.182Z,6.4
2018-01-26T00:41:42.967Z,6.38
2018-01-26T00:41:46.969Z,6.39
2018-01-26T00:41:50.972Z,6.53
2018-01-26T00:41:54.770Z,6.42
2018-01-26T00:41:58.660Z,6.39
2018-01-26T00:42:02.556Z,6.39
2018-01-26T00:42:06.347Z,6.42
2018-01-26T00:42:10.345Z,6.43
2018-01-26T00:42:14.238Z,6.38
2018-01-26T00:42:18.233Z,6.55
2018-01-26T00:42:22.226Z,6.42
2018-01-26T00:42:26.227Z,6.38
2018-01-26T00:42:30.224Z,6.43
2018-01-26T00:42:34.011Z,6.45
2018-01-26T00:42:37.796Z,6.48
2018-01-26T00:42:41.479Z,6.53
2018-01-26T00:42:45.591Z,6.42
2018-01-26T00:42:49.384Z,6.46
2018-01-26T00:42:53.176Z,6.48
2018-01-26T00:42:57.068Z,6.5
2018-01-26T00:43:00.963Z,6.4
2018-01-26T00:43:05.155Z,6.45
2018-01-26T00:43:09.156Z,6.39
2018-01-26T00:43:12.945Z,6.55
2018-01-26T00:43:17.161Z,6.43
2018-01-26T00:43:20.950Z,6.38
2018-01-26T00:43:24.842Z,6.48
2018-01-26T00:43:28.845Z,6.43
2018-01-26T00:43:32.738Z,6.39
2018-01-26T00:43:36.844Z,6.42
2018-01-26T00:43:40.738Z,6.53
2018-01-26T00:43:44.737Z,6.42
2018-01-26T00:43:48.627Z,6.43
2018-01-26T00:43:52.522Z,6.42
2018-01-26T00:43:56.314Z,6.4
2018-01-26T00:44:00.202Z,6.4
2018-01-26T00:44:03.990Z,6.43
2018-01-26T00:44:07.884Z,6.55
2018-01-26T00:44:11.722Z,6.42
2018-01-26T00:44:15.614Z,6.42
2018-01-26T00:44:19.512Z,6.38
2018-01-26T00:44:23.505Z,6.46
2018-01-26T00:44:27.294Z,6.46
2018-01-26T00:44:31.189Z,6.42
2018-01-26T00:44:34.976Z,6.38
2018-01-26T00:44:38.872Z,6.39
2018-01-26T00:44:42.762Z,6.55
2018-01-26T00:44:46.560Z,6.39
2018-01-26T00:44:50.554Z,6.45
2018-01-26T00:44:54.656Z,6.54
2018-01-26T00:44:58.441Z,6.36
2018-01-26T00:45:02.236Z,6.46
2018-01-26T00:45:06.129Z,6.43
2018-01-26T00:45:09.919Z,6.57
2018-01-26T00:45:13.810Z,6.45
2018-01-26T00:45:18.016Z,6.5
2018-01-26T00:45:22.119Z,6.42
2018-01-26T00:45:26.225Z,6.38
2018-01-26T00:45:30.482Z,6.43
2018-01-26T00:45:34.480Z,6.51
2018-01-26T00:45:38.160Z,6.4
2018-01-26T00:45:42.260Z,6.42
2018-01-26T00:45:46.153Z,6.43
2018-01-26T00:45:49.941Z,6.4
2018-01-26T00:45:53.838Z,6.48
2018-01-26T00:45:57.630Z,6.38
2018-01-26T00:46:01.421Z,6.4
2018-01-26T00:46:05.212Z,6.39
2018-01-26T00:46:08.997Z,6.38
2018-01-26T00:46:12.888Z,6.48
2018-01-26T00:46:16.677Z,6.4
2018-01-26T00:46:20.582Z,6.46
2018-01-26T00:46:24.575Z,6.48
2018-01-26T00:46:28.365Z,6.54
2018-01-26T00:46:32.256Z,6.48
2018-01-26T00:46:36.250Z,6.4
2018-01-26T00:46:40.251Z,6.42
2018-01-26T00:46:44.466Z,6.35
2018-01-26T00:46:48.577Z,6.43
2018-01-26T00:46:52.260Z,6.46
2018-01-26T00:46:56.054Z,6.39
2018-01-26T00:47:00.261Z,6.48
2018-01-26T00:47:04.151Z,6.46
2018-01-26T00:47:08.141Z,6.42
2018-01-26T00:47:12.137Z,6.45
2018-01-26T00:47:16.029Z,6.48
2018-01-26T00:47:19.921Z,6.39
2018-01-26T00:47:23.709Z,6.42
2018-01-26T00:47:27.612Z,6.39
2018-01-26T00:47:31.295Z,6.4
2018-01-26T00:47:34.980Z,6.38
2018-01-26T00:47:38.767Z,6.42
2018-01-26T00:47:42.764Z,6.38
2018-01-26T00:47:46.557Z,6.53
2018-01-26T00:47:50.446Z,6.4
2018-01-26T00:47:54.235Z,6.39
2018-01-26T00:47:58.123Z,6.38
2018-01-26T00:48:02.268Z,6.46
2018-01-26T00:48:06.269Z,6.43
2018-01-26T00:48:10.264Z,6.42
2018-01-26T00:48:13.947Z,6.4
2018-01-26T00:48:17.957Z,6.42
2018-01-26T00:48:22.071Z,6.4
2018-01-26T00:48:26.063Z,6.4
2018-01-26T00:48:29.958Z,6.5
2018-01-26T00:48:33.754Z,6.4
2018-01-26T00:48:37.650Z,6.4
2018-01-26T00:48:41.652Z,6.45
2018-01-26T00:48:45.543Z,6.42
2018-01-26T00:48:49.542Z,6.43
2018-01-26T00:48:53.444Z,6.39
2018-01-26T00:48:57.452Z,6.43
2018-01-26T00:49:01.344Z,6.43
2018-01-26T00:49:05.345Z,6.46
2018-01-26T00:49:09.135Z,6.46
2018-01-26T00:49:13.242Z,6.4
2018-01-26T00:49:17.134Z,6.42
2018-01-26T00:49:20.819Z,6.36
2018-01-26T00:49:24.931Z,6.42
2018-01-26T00:49:29.035Z,6.43
2018-01-26T00:49:32.828Z,6.43
2018-01-26T00:49:36.827Z,6.4
2018-01-26T00:49:40.933Z,6.43
2018-01-26T00:49:44.821Z,6.43
2018-01-26T00:49:48.613Z,6.43
2018-01-26T00:49:52.606Z,6.48
2018-01-26T00:49:56.498Z,6.46
2018-01-26T00:50:00.394Z,6.48
2018-01-26T00:50:04.243Z,6.4
2018-01-26T00:50:08.033Z,6.45
2018-01-26T00:50:12.141Z,6.43
2018-01-26T00:50:16.137Z,6.43
2018-01-26T00:50:20.130Z,6.5
2018-01-26T00:50:24.243Z,6.36
2018-01-26T00:50:28.135Z,6.39
2018-01-26T00:50:32.244Z,6.45
2018-01-26T00:50:36.351Z,6.39
2018-01-26T00:50:40.346Z,6.4
2018-01-26T00:50:44.246Z,6.48
2018-01-26T00:50:48.240Z,6.42
2018-01-26T00:50:52.244Z,6.43
2018-01-26T00:50:56.036Z,6.43
2018-01-26T00:51:00.043Z,6.42
2018-01-26T00:51:04.154Z,6.46
2018-01-26T00:51:08.049Z,6.48
2018-01-26T00:51:11.833Z,6.39
2018-01-26T00:51:15.622Z,6.45
2018-01-26T00:51:19.515Z,6.43
2018-01-26T00:51:23.509Z,6.42
2018-01-26T00:51:27.511Z,6.38
2018-01-26T00:51:31.512Z,6.39
2018-01-26T00:51:35.508Z,6.42
2018-01-26T00:51:39.506Z,6.4
2018-01-26T00:51:43.292Z,6.43
2018-01-26T00:51:46.973Z,6.46
2018-01-26T00:51:50.656Z,6.33
2018-01-26T00:51:54.555Z,6.43
2018-01-26T00:51:58.339Z,6.51
2018-01-26T00:52:02.022Z,6.35
2018-01-26T00:52:06.019Z,6.45
2018-01-26T00:52:10.122Z,6.35
2018-01-26T00:52:13.945Z,6.36
2018-01-26T00:52:17.837Z,6.45
2018-01-26T00:52:21.835Z,6.5
2018-01-26T00:52:25.842Z,6.45
2018-01-26T00:52:29.955Z,6.45
2018-01-26T00:52:34.061Z,6.4
2018-01-26T00:52:38.059Z,6.5
2018-01-26T00:52:42.160Z,6.4
2018-01-26T00:52:46.063Z,6.45
2018-01-26T00:52:50.057Z,6.45
2018-01-26T00:52:53.850Z,6.42
2018-01-26T00:52:57.743Z,6.42
2018-01-26T00:53:01.526Z,6.45
2018-01-26T00:53:05.413Z,6.42